Time;durP1;ratioP1;P1;durP2;ratioP2;P2;SDS_P1;SDS_P2;PMS_P1;PMS_P2;Temp;Humidity;BMP_temperature;BMP_pressure;BME280_temperature;BME280_humidity;BME280_pressure;Samples;Min_cycle;Max_cycle;Signal;HPM_P1;HPM_P2
2021/01/13 00:01:39;;;;;;;12.5;9.2;;;;;;;-0.73;86.99414;97484.84;;;;
2021/01/13 00:11:36;;;;;;;13.4;10.2;;;;;;;-0.71;86.99805;97503.91;;;;
2021/01/13 00:21:34;;;;;;;14.4;12.4;;;;;;;-0.6;87.19531;97507.38;;;;
2021/01/13 00:31:32;;;;;;;15.7;11.7;;;;;;;-0.57;87.41211;97518.23;;;;
2021/01/13 00:41:29;;;;;;;11.9;8.9;;;;;;;-0.54;88.04199;97520.34;;;;
2021/01/13 00:51:29;;;;;;;15.2;9.8;;;;;;;-0.35;87.90527;97539.18;;;;
2021/01/13 01:01:26;;;;;;;16;10.9;;;;;;;-0.3;88.87891;97551.61;;;;
2021/01/13 01:11:24;;;;;;;15.6;10.8;;;;;;;-0.21;89.19336;97560.64;;;;
2021/01/13 01:21:22;;;;;;;14.8;9.8;;;;;;;-0.16;89.41309;97561.42;;;;
2021/01/13 01:31:18;;;;;;;11.3;10.1;;;;;;;-0.16;88.4375;97577.31;;;;
2021/01/13 01:41:16;;;;;;;13.7;8.4;;;;;;;-0.11;87.13281;97587.92;;;;
2021/01/13 01:51:13;;;;;;;16;9.2;;;;;;;-0.1;86.63867;97615.17;;;;
2021/01/13 02:01:11;;;;;;;15.5;10.8;;;;;;;-0.1;85.84863;97604.58;;;;
2021/01/13 02:11:08;;;;;;;12.3;8.4;;;;;;;-0.19;84.6582;97611.46;;;;
2021/01/13 02:21:06;;;;;;;13.9;9.1;;;;;;;-0.36;84.95215;97632.08;;;;
2021/01/13 02:31:04;;;;;;;15.1;10.2;;;;;;;-0.37;84.28125;97635.77;;;;
2021/01/13 02:41:01;;;;;;;15.3;8.8;;;;;;;-0.37;84.19531;97639.21;;;;
2021/01/13 02:50:59;;;;;;;15.6;11.4;;;;;;;-0.43;84.41309;97634.97;;;;
2021/01/13 03:00:56;;;;;;;14.9;11.7;;;;;;;-0.45;84.46387;97639.7;;;;
2021/01/13 03:20:52;;;;;;;17.8;13.9;;;;;;;-0.55;84.53223;97643.12;;;;
2021/01/13 03:30:49;;;;;;;17.6;12.5;;;;;;;-0.6;84.97168;97645.77;;;;
2021/01/13 03:40:47;;;;;;;18.7;11.9;;;;;;;-0.61;85.30957;97646.81;;;;
2021/01/13 03:50:44;;;;;;;19.1;13.6;;;;;;;-0.66;86.37305;97651.3;;;;
2021/01/13 04:00:47;;;;;;;17.8;14.2;;;;;;;-0.57;86.79688;97647.09;;;;
2021/01/13 04:10:40;;;;;;;19.2;9.8;;;;;;;-0.59;86.67285;97643.92;;;;
2021/01/13 04:20:37;;;;;;;15.7;11.4;;;;;;;-0.52;86.36719;97649.73;;;;
2021/01/13 04:30:36;;;;;;;14.9;12;;;;;;;-0.53;87.27734;97648.97;;;;
2021/01/13 04:40:37;;;;;;;17.5;13.1;;;;;;;-0.51;87.69727;97661.92;;;;
2021/01/13 04:50:30;;;;;;;15.6;10.5;;;;;;;-0.51;87.53223;97667.22;;;;
2021/01/13 05:00:28;;;;;;;19.8;14.3;;;;;;;-0.56;88.12598;97678.59;;;;
2021/01/13 05:10:25;;;;;;;15.5;13.2;;;;;;;-0.62;88.5166;97702.62;;;;
2021/01/13 05:20:23;;;;;;;11.9;8.3;;;;;;;-0.61;87.06348;97690.98;;;;
2021/01/13 05:30:20;;;;;;;15.5;12.7;;;;;;;-0.61;86.70117;97720.09;;;;
2021/01/13 05:40:18;;;;;;;18;12.6;;;;;;;-0.76;86.8457;97734.02;;;;
2021/01/13 05:50:16;;;;;;;14.9;11.5;;;;;;;-1.04;87.41406;97748.38;;;;
2021/01/13 06:00:13;;;;;;;13.6;8.7;;;;;;;-1.23;88.9043;97773.63;;;;
2021/01/13 06:10:11;;;;;;;8.2;7.1;;;;;;;-1.25;85.11523;97782.86;;;;
2021/01/13 06:20:08;;;;;;;6.5;3.9;;;;;;;-1.23;82.99414;97815.12;;;;
2021/01/13 06:30:06;;;;;;;8.7;3;;;;;;;-1.32;81.22559;97830.61;;;;
2021/01/13 06:40:03;;;;;;;10.4;5.2;;;;;;;-1.4;79.85156;97865.44;;;;
2021/01/13 06:50:01;;;;;;;10.9;5.4;;;;;;;-1.48;79.58398;97876.44;;;;
2021/01/13 06:59:58;;;;;;;15.6;7.4;;;;;;;-1.48;80.56934;97883.56;;;;
2021/01/13 07:09:56;;;;;;;15.6;7.9;;;;;;;-1.46;80.35449;97906.07;;;;
2021/01/13 07:19:53;;;;;;;9.6;5.1;;;;;;;-1.41;80.18848;97903.47;;;;
2021/01/13 07:29:51;;;;;;;10.3;7.4;;;;;;;-1.28;80.95898;97916.3;;;;
2021/01/13 07:39:53;;;;;;;13;6.6;;;;;;;-1.25;80.84277;97915.8;;;;
2021/01/13 07:49:49;;;;;;;10.3;6;;;;;;;-1.19;80.3291;97924.59;;;;
2021/01/13 07:59:44;;;;;;;15.5;9.4;;;;;;;-0.96;79.9873;97931.44;;;;
2021/01/13 08:09:47;;;;;;;16.6;9.4;;;;;;;-0.94;79.94629;97942.58;;;;
2021/01/13 08:20:04;;;;;;;18.2;11.3;;;;;;;-0.66;78.46289;97939.69;;;;
2021/01/13 08:29:39;;;;;;;9.5;6.6;;;;;;;-0.53;77.41016;97932.13;;;;
2021/01/13 08:39:38;;;;;;;20.5;12.3;;;;;;;-0.58;78.80664;97933.91;;;;
2021/01/13 08:49:31;;;;;;;15.1;11.4;;;;;;;-0.54;78.98926;97935.02;;;;
2021/01/13 08:59:29;;;;;;;16.2;11.1;;;;;;;-0.34;78.25781;97937.82;;;;
2021/01/13 09:09:30;;;;;;;16.5;10.8;;;;;;;-0.06;77.60645;97940.15;;;;
2021/01/13 09:19:24;;;;;;;13.5;9.6;;;;;;;-0.13;78.8457;97959.95;;;;
2021/01/13 09:29:22;;;;;;;24.2;13.2;;;;;;;-0.22;80.16113;97946.4;;;;
2021/01/13 09:39:23;;;;;;;17.5;11.2;;;;;;;0.5;77.18945;97953.72;;;;
2021/01/13 09:49:17;;;;;;;21.1;14;;;;;;;0.69;75.48047;97946.92;;;;
2021/01/13 09:59:15;;;;;;;17.4;12.2;;;;;;;0.52;74.23828;97953.47;;;;
2021/01/13 10:09:13;;;;;;;19;12.2;;;;;;;-0.2;83.4248;97940.83;;;;
2021/01/13 10:19:11;;;;;;;19.4;12.8;;;;;;;-0.39;83.37793;97939.64;;;;
2021/01/13 10:29:16;;;;;;;17.7;13.4;;;;;;;-0.33;83.97168;97939.42;;;;
2021/01/13 10:39:15;;;;;;;23.8;15.5;;;;;;;0.33;81.09961;97937.2;;;;
2021/01/13 10:49:04;;;;;;;21.2;15.5;;;;;;;0.69;78.72168;97925.71;;;;
2021/01/13 10:59:01;;;;;;;25.2;18.2;;;;;;;1.01;76.28809;97914.91;;;;
2021/01/13 11:08:59;;;;;;;25.4;16.6;;;;;;;0.91;74.06348;97906.92;;;;
2021/01/13 11:18:57;;;;;;;20.3;12.8;;;;;;;0.89;73.70703;97887.84;;;;
2021/01/13 11:28:55;;;;;;;15.5;11.1;;;;;;;0.54;76.47949;97900.98;;;;
2021/01/13 11:38:59;;;;;;;14.6;9.6;;;;;;;-0.05;79.91797;97878.19;;;;
2021/01/13 11:48:56;;;;;;;14.5;10;;;;;;;-0.14;81.92285;97882.35;;;;
2021/01/13 11:58:48;;;;;;;15.4;10.7;;;;;;;-0.44;84.70508;97881.36;;;;
2021/01/13 12:08:46;;;;;;;16.8;8.6;;;;;;;-0.42;85.9502;97866.03;;;;
2021/01/13 12:18:43;;;;;;;14.8;11.6;;;;;;;-0.4;85.6709;97867.38;;;;
2021/01/13 12:28:41;;;;;;;14.1;9;;;;;;;-0.43;86.40918;97865.23;;;;
2021/01/13 12:38:41;;;;;;;14.1;10.9;;;;;;;-0.48;86.03613;97864.38;;;;
2021/01/13 12:48:36;;;;;;;17.2;11.5;;;;;;;-0.02;85.22852;97855.69;;;;
2021/01/13 12:58:36;;;;;;;32.2;22.6;;;;;;;0.04;85.09766;97851.2;;;;
2021/01/13 13:08:31;;;;;;;21.5;17.2;;;;;;;-0.05;84.64258;97862.3;;;;
2021/01/13 13:18:29;;;;;;;27.8;18.8;;;;;;;-0.17;86.42871;97852.94;;;;
2021/01/13 13:28:27;;;;;;;18.1;13.2;;;;;;;-0.34;87.42285;97862.89;;;;
2021/01/13 13:38:24;;;;;;;16.6;11.3;;;;;;;-0.39;87.63281;97876.91;;;;
2021/01/13 13:48:22;;;;;;;19.7;11.7;;;;;;;-0.27;85.83887;97871.41;;;;
2021/01/13 13:58:20;;;;;;;24.1;17.2;;;;;;;-0.38;86.39844;97870.55;;;;
2021/01/13 14:08:17;;;;;;;19.4;14.7;;;;;;;-0.3;86.28223;97880.67;;;;
2021/01/13 14:18:15;;;;;;;15.8;11.9;;;;;;;-0.46;86.86426;97900.16;;;;
2021/01/13 14:28:13;;;;;;;19.7;14;;;;;;;-0.51;88.96777;97892.16;;;;
2021/01/13 14:38:10;;;;;;;29;23.1;;;;;;;-0.54;89.58496;97903.25;;;;
2021/01/13 14:48:08;;;;;;;37.6;21.7;;;;;;;-0.49;89.66016;97894.56;;;;
2021/01/13 14:58:05;;;;;;;29.8;20.3;;;;;;;-0.55;89.45313;97905.1;;;;
2021/01/13 15:08:03;;;;;;;36.2;24.2;;;;;;;-0.54;89.50781;97911.2;;;;
2021/01/13 15:18:00;;;;;;;26.3;18.6;;;;;;;-0.57;88.57324;97886.05;;;;
2021/01/13 15:27:58;;;;;;;33.3;16.5;;;;;;;-0.62;87.90332;97893.13;;;;
2021/01/13 15:37:56;;;;;;;21.1;11.8;;;;;;;-0.7;87.20801;97880.38;;;;
2021/01/13 15:47:53;;;;;;;27;15.6;;;;;;;-0.71;87.13965;97892.8;;;;
2021/01/13 15:57:51;;;;;;;19.9;14.6;;;;;;;-0.73;86.62109;97865.02;;;;
2021/01/13 16:07:48;;;;;;;23.2;14.1;;;;;;;-0.85;86.65039;97880.23;;;;
2021/01/13 16:17:46;;;;;;;27.3;15.9;;;;;;;-0.82;86.49609;97877.89;;;;
2021/01/13 16:27:43;;;;;;;24.2;17.1;;;;;;;-0.87;86.26367;97879.7;;;;
2021/01/13 16:37:41;;;;;;;18.9;11.4;;;;;;;-0.84;85.70117;97858.84;;;;
2021/01/13 16:47:38;;;;;;;22.6;13.1;;;;;;;-0.76;85.5625;97852.27;;;;
2021/01/13 16:57:38;;;;;;;37.4;20.7;;;;;;;-0.75;85.81836;97859.16;;;;
2021/01/13 17:07:37;;;;;;;17.5;10.7;;;;;;;-0.86;86.8457;97865.41;;;;
2021/01/13 17:17:31;;;;;;;17.3;12.4;;;;;;;-0.86;86.84766;97852.98;;;;
2021/01/13 17:27:29;;;;;;;24.8;15.4;;;;;;;-0.86;87.16602;97839.77;;;;
2021/01/13 17:37:26;;;;;;;18.4;14.4;;;;;;;-0.89;88.08887;97847.41;;;;
2021/01/13 17:47:24;;;;;;;25.4;18.2;;;;;;;-0.95;89.13965;97846.57;;;;
2021/01/13 17:57:21;;;;;;;27.4;16.5;;;;;;;-0.93;89.49316;97831.23;;;;
2021/01/13 18:07:19;;;;;;;20.5;17;;;;;;;-0.92;89.28711;97809.04;;;;
2021/01/13 18:17:17;;;;;;;18.2;14.2;;;;;;;-1.01;89.20313;97807.92;;;;
2021/01/13 18:27:14;;;;;;;22.8;16;;;;;;;-1.05;89.04199;97794.41;;;;
2021/01/13 18:37:12;;;;;;;26.6;18.9;;;;;;;-0.98;89.17578;97793.39;;;;
2021/01/13 18:47:09;;;;;;;28.5;22.5;;;;;;;-0.96;89.05957;97796.56;;;;
2021/01/13 18:57:07;;;;;;;22.3;19;;;;;;;-0.96;89.68457;97797.36;;;;
2021/01/13 19:07:04;;;;;;;21.5;16.2;;;;;;;-0.9;89.87305;97780.48;;;;
2021/01/13 19:17:02;;;;;;;35.8;22.4;;;;;;;-0.91;89.85645;97780.75;;;;
2021/01/13 19:27:00;;;;;;;30.1;17.5;;;;;;;-0.87;89.57031;97776.55;;;;
2021/01/13 19:36:57;;;;;;;69.2;40.7;;;;;;;-0.79;88.85547;97770.77;;;;
2021/01/13 19:46:55;;;;;;;22.9;15.8;;;;;;;-0.84;88.53809;97749.59;;;;
2021/01/13 19:56:52;;;;;;;39.1;25.5;;;;;;;-0.8;88.2168;97740.1;;;;
2021/01/13 20:06:50;;;;;;;32.9;22.9;;;;;;;-0.89;89.74121;97726.55;;;;
2021/01/13 20:16:48;;;;;;;28.7;20.8;;;;;;;-0.94;89.5459;97721.23;;;;
2021/01/13 20:26:45;;;;;;;35.5;22.8;;;;;;;-0.84;88.72363;97718.66;;;;
2021/01/13 20:36:43;;;;;;;26.4;18.4;;;;;;;-0.8;88.75488;97698.55;;;;
2021/01/13 20:46:40;;;;;;;30.5;21.1;;;;;;;-0.81;88.57617;97691.69;;;;
2021/01/13 20:56:44;;;;;;;23.2;16.5;;;;;;;-0.82;89.20898;97684;;;;
2021/01/13 21:06:37;;;;;;;20.7;14.2;;;;;;;-0.87;88.87012;97668.12;;;;
2021/01/13 21:16:33;;;;;;;19.9;12.1;;;;;;;-0.88;88.4209;97664.67;;;;
2021/01/13 21:26:31;;;;;;;22.6;16.8;;;;;;;-0.9;88.0127;97656.17;;;;
2021/01/13 21:36:29;;;;;;;27.5;12.8;;;;;;;-0.83;87.69629;97634.81;;;;
2021/01/13 21:46:26;;;;;;;20.3;15.7;;;;;;;-0.85;87.44141;97624.48;;;;
2021/01/13 21:56:24;;;;;;;21;14.5;;;;;;;-0.94;87.74902;97619.95;;;;
2021/01/13 22:06:21;;;;;;;18.3;15;;;;;;;-1.06;88.67969;97620.94;;;;
2021/01/13 22:16:19;;;;;;;24.5;16.6;;;;;;;-1.05;88.56055;97604.03;;;;
2021/01/13 22:26:17;;;;;;;22.2;14.7;;;;;;;-1.15;88.86719;97589.96;;;;
2021/01/13 22:36:14;;;;;;;16.1;11.7;;;;;;;-1.18;89.6377;97578.03;;;;
2021/01/13 22:46:12;;;;;;;15.2;10;;;;;;;-1.18;90.03125;97567.45;;;;
2021/01/13 22:56:09;;;;;;;13.9;11.1;;;;;;;-1.14;90.09375;97559.81;;;;
2021/01/13 23:06:07;;;;;;;15.5;11.9;;;;;;;-1.09;89.79883;97554.56;;;;
2021/01/13 23:16:05;;;;;;;14.5;11.5;;;;;;;-1.11;89.55469;97530.24;;;;
2021/01/13 23:26:02;;;;;;;17.2;10.5;;;;;;;-1.19;89.69043;97517.51;;;;
2021/01/13 23:36:00;;;;;;;15.6;9.8;;;;;;;-1.22;89.87988;97518.03;;;;
2021/01/13 23:45:58;;;;;;;21.6;12.4;;;;;;;-1.23;89.65918;97498.73;;;;
2021/01/13 23:55:57;;;;;;;14.5;8.6;;;;;;;-1.21;89.24902;97485.23;;;;
